Flight Track Log - Related Links

Times and Time Zones

All times are in EDT time to prevent confusion due to time zone crossing. See the N201AK flight status page for this flight to view local times or setup timezone preferences in your user account.

Time Position Orientation Groundspeed Altitude Reporting Facility
EDT Latitude Longitude Course Direction KTS MPH feet Rate Location/Type
12:19PM 38.7667 -75.6167 293° West 101 116 5,400  Level Potomac TRACON
12:20PM 38.8243 -75.2729 293° West  Level FlightAware Approximate
12:20PM 38.7833 -75.6500 303° West 102 117 5,900  Level Potomac TRACON
12:21PM 38.8391 -75.3176 293° West  Level FlightAware Approximate
12:21PM 38.8000 -75.7000 293° West 134 154 5,900  Level Potomac TRACON
12:22PM 38.8537 -75.3624 293° West  Level FlightAware Approximate
12:22PM 38.8167 -75.7333 303° West 145 167 5,900  Level Potomac TRACON
12:23PM 38.8683 -75.4072 293° West  Level FlightAware Approximate
12:23PM 38.8333 -75.8000 288° West 151 174 5,900  Level Potomac TRACON
12:24PM 38.8829 -75.4520 293° West  Level FlightAware Approximate
12:24PM 38.8500 -75.8333 303° West 150 173 5,900  Level Potomac TRACON
12:25PM 38.8667 -75.8833 293° West 149 171 5,900  Level Potomac TRACON
12:26PM 38.9000 -75.9333 311° West 147 169 5,900  Level Potomac TRACON
12:27PM 38.9167 -75.9833 293° West 144 166 5,900  Level Potomac TRACON
12:28PM 38.9333 -76.0167 303° West 142 163 5,900  Level Potomac TRACON
12:29PM 38.9500 -76.0667 293° West 144 166 5,900  Level Potomac TRACON
12:30PM 38.9667 -76.1167 293° West 143 165 5,900  Level Potomac TRACON
12:31PM 38.9833 -76.1667 293° West 144 166 5,900  Level Potomac TRACON
12:32PM 39.0000 -76.2000 303° West 144 166 5,900  Level Potomac TRACON
12:33PM 39.0167 -76.2500 293° West 144 166 5,900  Level Potomac TRACON
12:34PM 39.0333 -76.3000 293° West 144 166 5,900  Level Potomac TRACON
12:35PM 39.0500 -76.3500 293° West 143 165 5,900  Level Potomac TRACON
12:36PM 39.0667 -76.3833 303° West 144 166 5,900  Level Potomac TRACON
12:37PM 39.0833 -76.4167 303° West 145 167 5,900  Level Potomac TRACON
12:38PM 39.1000 -76.4667 293° West 144 166 5,900  Level Potomac TRACON
12:39PM 39.1167 -76.5333 288° West 143 165 5,900  Level Potomac TRACON
12:40PM 39.1333 -76.5667 303° West 141 162 5,900  Level Potomac TRACON
12:41PM 39.1500 -76.6167 293° West 142 163 5,900  Level Potomac TRACON
12:42PM 39.1667 -76.6500 303° West 143 165 5,900  Level Potomac TRACON
12:43PM 39.2000 -76.7000 311° West 142 163 5,900  Level Potomac TRACON
12:44PM 39.2167 -76.7500 293° West 142 163 5,900  Level Potomac TRACON
12:45PM 39.2333 -76.7833 303° West 143 165 5,900  Level Potomac TRACON
12:46PM 39.2500 -76.8333 293° West 145 167 5,900  Level Potomac TRACON
12:47PM 39.2667 -76.8833 293° West 146 168 5,900  Level Potomac TRACON
12:48PM 39.2833 -76.9167 303° West 147 169 5,900  Level Potomac TRACON
12:49PM 39.3000 -76.9667 293° West 146 168 5,900  Level Potomac TRACON
12:50PM 39.3333 -77.0167 311° West 148 170 5,900  Level Potomac TRACON
12:51PM 39.3333 -77.0667 270° West 143 165 5,900 -211 Level Potomac TRACON
12:51PM 39.3333 -77.1167 270° West 150 173 5,500 -400 Descending Potomac TRACON
12:53PM 39.3167 -77.1667 247° West 152 175 5,100 -350 Descending Potomac TRACON
12:53PM 39.3000 -77.2167 247° West 154 177 4,800 -417 Descending Potomac TRACON
12:54PM 39.2667 -77.2500 218° Southwest 152 175 4,300 -595 Descending Potomac TRACON
12:55PM 39.2500 -77.3000 247° West 158 182 3,600 -700 Descending Potomac TRACON
12:56PM 39.2167 -77.3333 218° Southwest 157 181 2,900 -750 Descending Potomac TRACON
12:57PM 39.1833 -77.3833 229° Southwest 154 177 2,100 -650 Descending Potomac TRACON
12:58PM 39.1667 -77.4167 237° Southwest 146 168 1,600 -474 Descending Potomac TRACON
12:59PM 39.1500 -77.4500 237° Southwest 142 163 1,200 -316 Descending Potomac TRACON
01:00PM 39.1167 -77.4833 218° Southwest 129 148 1,000 -100 Descending Potomac TRACON
01:01PM 39.0833 -77.5167 218° Southwest 120 138 1,000 53 Level Potomac TRACON
01:02PM 39.0833 -77.5333 270° West 125 144 1,100 -150 Climbing Potomac TRACON
01:03PM 39.1000 -77.5500 322° Northwest 95 109 700 -300 Descending Potomac TRACON
01:04PM 39.0833 -77.5667 218° Southwest 80 92 500 -222 Descending Potomac TRACON

Login

Don't have an account? Register now (free) for customized features, flight alerts, and more!